sensor_id;sensor_type;location;lat;lon;timestamp;P1;durP1;ratioP1;P2;durP2;ratioP2
38123;SDS011;23934;47.998;9.832;2023-06-14T00:00:43;8.38;;;3.20;;
38123;SDS011;23934;47.998;9.832;2023-06-14T00:03:09;12.85;;;3.63;;
38123;SDS011;23934;47.998;9.832;2023-06-14T00:05:37;9.80;;;3.60;;
38123;SDS011;23934;47.998;9.832;2023-06-14T00:08:08;8.57;;;3.58;;
38123;SDS011;23934;47.998;9.832;2023-06-14T00:10:35;7.47;;;3.53;;
38123;SDS011;23934;47.998;9.832;2023-06-14T00:13:01;8.18;;;2.90;;
38123;SDS011;23934;47.998;9.832;2023-06-14T00:15:28;9.13;;;3.10;;
38123;SDS011;23934;47.998;9.832;2023-06-14T00:17:55;10.93;;;3.25;;
38123;SDS011;23934;47.998;9.832;2023-06-14T00:20:25;8.30;;;3.05;;
38123;SDS011;23934;47.998;9.832;2023-06-14T00:22:51;7.70;;;3.28;;
38123;SDS011;23934;47.998;9.832;2023-06-14T00:25:18;9.55;;;4.03;;
38123;SDS011;23934;47.998;9.832;2023-06-14T00:27:44;7.90;;;3.10;;
38123;SDS011;23934;47.998;9.832;2023-06-14T00:30:11;9.00;;;3.42;;
38123;SDS011;23934;47.998;9.832;2023-06-14T00:32:37;7.32;;;3.60;;
38123;SDS011;23934;47.998;9.832;2023-06-14T00:35:03;10.25;;;2.95;;
38123;SDS011;23934;47.998;9.832;2023-06-14T00:37:29;9.32;;;3.35;;
38123;SDS011;23934;47.998;9.832;2023-06-14T00:39:55;20.60;;;3.75;;
38123;SDS011;23934;47.998;9.832;2023-06-14T00:42:25;6.43;;;3.28;;
38123;SDS011;23934;47.998;9.832;2023-06-14T00:44:51;22.30;;;3.88;;
38123;SDS011;23934;47.998;9.832;2023-06-14T00:47:17;9.75;;;4.13;;
38123;SDS011;23934;47.998;9.832;2023-06-14T00:49:44;8.25;;;3.70;;
38123;SDS011;23934;47.998;9.832;2023-06-14T00:52:10;8.38;;;3.67;;
38123;SDS011;23934;47.998;9.832;2023-06-14T00:54:37;7.75;;;3.75;;
38123;SDS011;23934;47.998;9.832;2023-06-14T00:57:03;9.65;;;3.70;;
38123;SDS011;23934;47.998;9.832;2023-06-14T00:59:29;8.18;;;3.78;;
38123;SDS011;23934;47.998;9.832;2023-06-14T01:01:55;12.30;;;3.63;;
38123;SDS011;23934;47.998;9.832;2023-06-14T01:04:21;12.85;;;3.83;;
38123;SDS011;23934;47.998;9.832;2023-06-14T01:09:32;10.30;;;3.50;;
38123;SDS011;23934;47.998;9.832;2023-06-14T01:12:08;7.47;;;3.30;;
38123;SDS011;23934;47.998;9.832;2023-06-14T01:14:37;11.88;;;3.42;;
38123;SDS011;23934;47.998;9.832;2023-06-14T01:17:03;7.53;;;4.20;;
38123;SDS011;23934;47.998;9.832;2023-06-14T01:19:30;8.63;;;3.78;;
38123;SDS011;23934;47.998;9.832;2023-06-14T01:21:56;11.73;;;3.58;;
38123;SDS011;23934;47.998;9.832;2023-06-14T01:24:22;13.05;;;4.20;;
38123;SDS011;23934;47.998;9.832;2023-06-14T01:26:50;9.02;;;3.40;;
38123;SDS011;23934;47.998;9.832;2023-06-14T01:29:20;10.23;;;3.78;;
38123;SDS011;23934;47.998;9.832;2023-06-14T01:31:46;7.55;;;3.05;;
38123;SDS011;23934;47.998;9.832;2023-06-14T01:34:13;8.15;;;3.72;;
38123;SDS011;23934;47.998;9.832;2023-06-14T01:36:39;11.32;;;4.25;;
38123;SDS011;23934;47.998;9.832;2023-06-14T01:39:06;9.95;;;3.83;;
38123;SDS011;23934;47.998;9.832;2023-06-14T01:41:33;15.90;;;3.53;;
38123;SDS011;23934;47.998;9.832;2023-06-14T01:43:59;9.85;;;3.90;;
38123;SDS011;23934;47.998;9.832;2023-06-14T01:46:25;12.65;;;3.58;;
38123;SDS011;23934;47.998;9.832;2023-06-14T01:48:51;8.27;;;3.88;;
38123;SDS011;23934;47.998;9.832;2023-06-14T01:51:17;8.82;;;3.30;;
38123;SDS011;23934;47.998;9.832;2023-06-14T01:53:43;7.57;;;3.72;;
38123;SDS011;23934;47.998;9.832;2023-06-14T01:56:10;7.15;;;3.80;;
38123;SDS011;23934;47.998;9.832;2023-06-14T01:58:36;11.95;;;4.07;;
38123;SDS011;23934;47.998;9.832;2023-06-14T02:01:02;8.07;;;3.60;;
38123;SDS011;23934;47.998;9.832;2023-06-14T02:03:28;11.40;;;4.30;;
38123;SDS011;23934;47.998;9.832;2023-06-14T02:05:55;8.35;;;3.45;;
38123;SDS011;23934;47.998;9.832;2023-06-14T02:08:21;9.93;;;4.28;;
38123;SDS011;23934;47.998;9.832;2023-06-14T02:10:48;10.95;;;3.83;;
38123;SDS011;23934;47.998;9.832;2023-06-14T02:13:14;9.15;;;3.80;;
38123;SDS011;23934;47.998;9.832;2023-06-14T02:15:40;6.95;;;3.38;;
38123;SDS011;23934;47.998;9.832;2023-06-14T02:18:08;23.33;;;4.00;;
38123;SDS011;23934;47.998;9.832;2023-06-14T02:20:35;11.35;;;4.07;;
38123;SDS011;23934;47.998;9.832;2023-06-14T02:23:01;9.20;;;3.90;;
38123;SDS011;23934;47.998;9.832;2023-06-14T02:25:27;11.35;;;4.13;;
38123;SDS011;23934;47.998;9.832;2023-06-14T02:27:53;10.05;;;3.53;;
38123;SDS011;23934;47.998;9.832;2023-06-14T02:30:20;8.60;;;4.00;;
38123;SDS011;23934;47.998;9.832;2023-06-14T02:32:46;10.55;;;4.13;;
38123;SDS011;23934;47.998;9.832;2023-06-14T02:35:13;8.65;;;4.13;;
38123;SDS011;23934;47.998;9.832;2023-06-14T02:37:39;11.30;;;4.13;;
38123;SDS011;23934;47.998;9.832;2023-06-14T02:40:05;8.27;;;3.72;;
38123;SDS011;23934;47.998;9.832;2023-06-14T02:42:34;10.35;;;4.25;;
38123;SDS011;23934;47.998;9.832;2023-06-14T02:45:00;11.23;;;4.13;;
38123;SDS011;23934;47.998;9.832;2023-06-14T02:47:27;18.27;;;4.78;;
38123;SDS011;23934;47.998;9.832;2023-06-14T02:49:53;9.88;;;3.97;;
38123;SDS011;23934;47.998;9.832;2023-06-14T02:52:19;11.73;;;4.50;;
38123;SDS011;23934;47.998;9.832;2023-06-14T02:54:45;16.92;;;4.45;;
38123;SDS011;23934;47.998;9.832;2023-06-14T02:57:12;10.70;;;4.20;;
38123;SDS011;23934;47.998;9.832;2023-06-14T02:59:38;9.05;;;3.80;;
38123;SDS011;23934;47.998;9.832;2023-06-14T03:02:04;13.52;;;4.35;;
38123;SDS011;23934;47.998;9.832;2023-06-14T03:04:30;8.45;;;3.88;;
38123;SDS011;23934;47.998;9.832;2023-06-14T03:09:33;10.82;;;3.90;;
38123;SDS011;23934;47.998;9.832;2023-06-14T03:12:00;7.43;;;3.55;;
38123;SDS011;23934;47.998;9.832;2023-06-14T03:14:26;9.45;;;4.13;;
38123;SDS011;23934;47.998;9.832;2023-06-14T03:16:51;8.48;;;3.72;;
38123;SDS011;23934;47.998;9.832;2023-06-14T03:19:21;13.98;;;4.45;;
38123;SDS011;23934;47.998;9.832;2023-06-14T03:21:47;8.55;;;3.85;;
38123;SDS011;23934;47.998;9.832;2023-06-14T03:24:14;9.32;;;3.95;;
38123;SDS011;23934;47.998;9.832;2023-06-14T03:26:41;13.00;;;4.30;;
38123;SDS011;23934;47.998;9.832;2023-06-14T03:29:07;7.75;;;3.90;;
38123;SDS011;23934;47.998;9.832;2023-06-14T03:31:34;9.82;;;4.32;;
38123;SDS011;23934;47.998;9.832;2023-06-14T03:34:00;9.43;;;4.20;;
38123;SDS011;23934;47.998;9.832;2023-06-14T03:36:26;10.45;;;4.47;;
38123;SDS011;23934;47.998;9.832;2023-06-14T03:38:53;8.93;;;4.13;;
38123;SDS011;23934;47.998;9.832;2023-06-14T03:41:22;11.27;;;4.78;;
38123;SDS011;23934;47.998;9.832;2023-06-14T03:43:48;16.10;;;4.25;;
38123;SDS011;23934;47.998;9.832;2023-06-14T03:46:14;11.35;;;4.70;;
38123;SDS011;23934;47.998;9.832;2023-06-14T03:48:40;7.60;;;3.70;;
38123;SDS011;23934;47.998;9.832;2023-06-14T03:51:06;9.63;;;4.45;;
38123;SDS011;23934;47.998;9.832;2023-06-14T03:53:32;12.32;;;4.07;;
38123;SDS011;23934;47.998;9.832;2023-06-14T03:56:00;9.80;;;3.70;;
38123;SDS011;23934;47.998;9.832;2023-06-14T03:58:26;16.73;;;4.32;;
38123;SDS011;23934;47.998;9.832;2023-06-14T04:00:54;9.77;;;4.32;;
38123;SDS011;23934;47.998;9.832;2023-06-14T04:03:20;9.57;;;4.35;;
38123;SDS011;23934;47.998;9.832;2023-06-14T04:05:48;11.70;;;4.18;;
38123;SDS011;23934;47.998;9.832;2023-06-14T04:08:14;10.88;;;4.30;;
38123;SDS011;23934;47.998;9.832;2023-06-14T04:10:40;10.15;;;4.28;;
38123;SDS011;23934;47.998;9.832;2023-06-14T04:13:06;13.38;;;5.25;;
38123;SDS011;23934;47.998;9.832;2023-06-14T04:15:32;16.45;;;5.57;;
38123;SDS011;23934;47.998;9.832;2023-06-14T04:17:59;8.95;;;4.50;;
38123;SDS011;23934;47.998;9.832;2023-06-14T04:20:25;10.68;;;4.15;;
38123;SDS011;23934;47.998;9.832;2023-06-14T04:22:51;10.43;;;3.92;;
38123;SDS011;23934;47.998;9.832;2023-06-14T04:25:17;9.02;;;4.43;;
38123;SDS011;23934;47.998;9.832;2023-06-14T04:27:43;7.65;;;4.03;;
38123;SDS011;23934;47.998;9.832;2023-06-14T04:30:10;7.68;;;3.92;;
38123;SDS011;23934;47.998;9.832;2023-06-14T04:32:36;11.32;;;4.38;;
38123;SDS011;23934;47.998;9.832;2023-06-14T04:35:08;9.95;;;4.35;;
38123;SDS011;23934;47.998;9.832;2023-06-14T04:37:34;17.38;;;4.78;;
38123;SDS011;23934;47.998;9.832;2023-06-14T04:40:05;12.73;;;5.03;;
38123;SDS011;23934;47.998;9.832;2023-06-14T04:42:31;7.85;;;4.20;;
38123;SDS011;23934;47.998;9.832;2023-06-14T04:44:57;8.15;;;3.85;;
38123;SDS011;23934;47.998;9.832;2023-06-14T04:47:23;14.60;;;5.00;;
38123;SDS011;23934;47.998;9.832;2023-06-14T04:49:54;14.43;;;4.80;;
38123;SDS011;23934;47.998;9.832;2023-06-14T04:52:20;10.07;;;4.53;;
38123;SDS011;23934;47.998;9.832;2023-06-14T04:54:47;5.60;;;3.70;;
38123;SDS011;23934;47.998;9.832;2023-06-14T04:57:13;15.68;;;4.63;;
38123;SDS011;23934;47.998;9.832;2023-06-14T04:59:42;11.93;;;4.60;;
38123;SDS011;23934;47.998;9.832;2023-06-14T05:02:09;13.05;;;4.13;;
38123;SDS011;23934;47.998;9.832;2023-06-14T05:04:35;13.00;;;5.25;;
38123;SDS011;23934;47.998;9.832;2023-06-14T05:07:04;8.90;;;3.78;;
38123;SDS011;23934;47.998;9.832;2023-06-14T05:09:31;17.85;;;4.57;;
38123;SDS011;23934;47.998;9.832;2023-06-14T05:11:57;7.38;;;3.92;;
38123;SDS011;23934;47.998;9.832;2023-06-14T05:14:25;10.15;;;4.40;;
38123;SDS011;23934;47.998;9.832;2023-06-14T05:16:51;7.30;;;4.13;;
38123;SDS011;23934;47.998;9.832;2023-06-14T05:19:18;8.18;;;4.10;;
38123;SDS011;23934;47.998;9.832;2023-06-14T05:21:45;9.98;;;4.25;;
38123;SDS011;23934;47.998;9.832;2023-06-14T05:24:12;19.10;;;4.43;;
38123;SDS011;23934;47.998;9.832;2023-06-14T05:26:38;10.25;;;4.82;;
38123;SDS011;23934;47.998;9.832;2023-06-14T05:29:04;9.43;;;4.78;;
38123;SDS011;23934;47.998;9.832;2023-06-14T05:31:30;8.77;;;3.95;;
38123;SDS011;23934;47.998;9.832;2023-06-14T05:33:56;7.82;;;4.35;;
38123;SDS011;23934;47.998;9.832;2023-06-14T05:36:22;10.00;;;4.90;;
38123;SDS011;23934;47.998;9.832;2023-06-14T05:38:48;10.85;;;4.63;;
38123;SDS011;23934;47.998;9.832;2023-06-14T05:41:15;11.60;;;4.97;;
38123;SDS011;23934;47.998;9.832;2023-06-14T05:43:41;11.45;;;4.55;;
38123;SDS011;23934;47.998;9.832;2023-06-14T05:46:07;8.30;;;4.45;;
38123;SDS011;23934;47.998;9.832;2023-06-14T05:48:33;10.20;;;4.90;;
38123;SDS011;23934;47.998;9.832;2023-06-14T05:50:59;8.68;;;4.68;;
38123;SDS011;23934;47.998;9.832;2023-06-14T05:53:25;11.25;;;4.80;;
38123;SDS011;23934;47.998;9.832;2023-06-14T05:55:51;10.55;;;4.57;;
38123;SDS011;23934;47.998;9.832;2023-06-14T05:58:19;13.52;;;4.50;;
38123;SDS011;23934;47.998;9.832;2023-06-14T06:00:45;8.30;;;4.63;;
38123;SDS011;23934;47.998;9.832;2023-06-14T06:03:11;9.40;;;4.70;;
38123;SDS011;23934;47.998;9.832;2023-06-14T06:05:38;8.73;;;4.78;;
38123;SDS011;23934;47.998;9.832;2023-06-14T06:08:04;9.95;;;3.95;;
38123;SDS011;23934;47.998;9.832;2023-06-14T06:10:30;7.85;;;3.70;;
38123;SDS011;23934;47.998;9.832;2023-06-14T06:12:56;7.35;;;3.38;;
38123;SDS011;23934;47.998;9.832;2023-06-14T06:15:22;7.07;;;3.72;;
38123;SDS011;23934;47.998;9.832;2023-06-14T06:17:48;7.85;;;4.00;;
38123;SDS011;23934;47.998;9.832;2023-06-14T06:20:14;12.27;;;4.32;;
38123;SDS011;23934;47.998;9.832;2023-06-14T06:22:40;12.48;;;3.97;;
38123;SDS011;23934;47.998;9.832;2023-06-14T06:25:06;9.77;;;4.00;;
38123;SDS011;23934;47.998;9.832;2023-06-14T06:27:33;7.47;;;3.78;;
38123;SDS011;23934;47.998;9.832;2023-06-14T06:30:02;10.02;;;4.00;;
38123;SDS011;23934;47.998;9.832;2023-06-14T06:32:28;6.10;;;3.80;;
38123;SDS011;23934;47.998;9.832;2023-06-14T06:34:54;8.75;;;3.28;;
38123;SDS011;23934;47.998;9.832;2023-06-14T06:37:20;5.55;;;3.58;;
38123;SDS011;23934;47.998;9.832;2023-06-14T06:39:46;8.32;;;3.42;;
38123;SDS011;23934;47.998;9.832;2023-06-14T06:42:12;6.50;;;3.88;;
38123;SDS011;23934;47.998;9.832;2023-06-14T06:44:38;7.80;;;3.25;;
38123;SDS011;23934;47.998;9.832;2023-06-14T06:47:04;8.65;;;3.65;;
38123;SDS011;23934;47.998;9.832;2023-06-14T06:49:30;9.15;;;3.65;;
38123;SDS011;23934;47.998;9.832;2023-06-14T06:52:00;6.20;;;4.10;;
38123;SDS011;23934;47.998;9.832;2023-06-14T06:54:29;12.57;;;3.95;;
38123;SDS011;23934;47.998;9.832;2023-06-14T06:56:55;8.38;;;3.80;;
38123;SDS011;23934;47.998;9.832;2023-06-14T06:59:21;8.57;;;4.07;;
38123;SDS011;23934;47.998;9.832;2023-06-14T07:01:47;11.38;;;4.10;;
38123;SDS011;23934;47.998;9.832;2023-06-14T07:04:13;7.30;;;3.55;;
38123;SDS011;23934;47.998;9.832;2023-06-14T07:06:41;5.45;;;3.53;;
38123;SDS011;23934;47.998;9.832;2023-06-14T07:09:07;7.90;;;3.70;;
38123;SDS011;23934;47.998;9.832;2023-06-14T07:11:37;10.23;;;4.10;;
38123;SDS011;23934;47.998;9.832;2023-06-14T07:14:03;8.13;;;3.28;;
38123;SDS011;23934;47.998;9.832;2023-06-14T07:16:29;5.30;;;3.30;;
38123;SDS011;23934;47.998;9.832;2023-06-14T07:18:55;8.80;;;3.88;;
38123;SDS011;23934;47.998;9.832;2023-06-14T07:21:21;9.32;;;3.42;;
38123;SDS011;23934;47.998;9.832;2023-06-14T07:23:47;9.65;;;4.07;;
38123;SDS011;23934;47.998;9.832;2023-06-14T07:26:13;6.90;;;3.95;;
38123;SDS011;23934;47.998;9.832;2023-06-14T07:28:39;9.43;;;3.83;;
38123;SDS011;23934;47.998;9.832;2023-06-14T07:31:05;8.07;;;3.28;;
38123;SDS011;23934;47.998;9.832;2023-06-14T07:33:31;7.45;;;3.83;;
38123;SDS011;23934;47.998;9.832;2023-06-14T07:35:57;5.80;;;3.20;;
38123;SDS011;23934;47.998;9.832;2023-06-14T07:38:23;9.15;;;3.30;;
38123;SDS011;23934;47.998;9.832;2023-06-14T07:40:49;6.03;;;3.17;;
38123;SDS011;23934;47.998;9.832;2023-06-14T07:43:15;7.63;;;3.55;;
38123;SDS011;23934;47.998;9.832;2023-06-14T07:45:41;5.60;;;3.50;;
38123;SDS011;23934;47.998;9.832;2023-06-14T07:48:07;5.57;;;3.40;;
38123;SDS011;23934;47.998;9.832;2023-06-14T07:50:33;10.30;;;3.70;;
38123;SDS011;23934;47.998;9.832;2023-06-14T07:52:59;12.13;;;3.80;;
38123;SDS011;23934;47.998;9.832;2023-06-14T07:55:25;5.80;;;3.30;;
38123;SDS011;23934;47.998;9.832;2023-06-14T07:57:51;4.88;;;2.92;;
38123;SDS011;23934;47.998;9.832;2023-06-14T08:00:17;4.93;;;3.10;;
38123;SDS011;23934;47.998;9.832;2023-06-14T08:02:44;4.60;;;2.90;;
38123;SDS011;23934;47.998;9.832;2023-06-14T08:05:10;5.18;;;3.08;;
38123;SDS011;23934;47.998;9.832;2023-06-14T08:07:37;7.38;;;3.30;;
38123;SDS011;23934;47.998;9.832;2023-06-14T08:10:06;5.25;;;3.30;;
38123;SDS011;23934;47.998;9.832;2023-06-14T08:12:33;6.45;;;3.17;;
38123;SDS011;23934;47.998;9.832;2023-06-14T08:15:00;9.00;;;3.15;;
38123;SDS011;23934;47.998;9.832;2023-06-14T08:17:26;5.20;;;3.17;;
38123;SDS011;23934;47.998;9.832;2023-06-14T08:19:52;9.88;;;3.45;;
38123;SDS011;23934;47.998;9.832;2023-06-14T08:22:22;6.38;;;2.90;;
38123;SDS011;23934;47.998;9.832;2023-06-14T08:24:49;8.27;;;3.22;;
38123;SDS011;23934;47.998;9.832;2023-06-14T08:27:15;7.13;;;3.38;;
38123;SDS011;23934;47.998;9.832;2023-06-14T08:29:41;5.68;;;3.33;;
38123;SDS011;23934;47.998;9.832;2023-06-14T08:32:08;5.60;;;3.13;;
38123;SDS011;23934;47.998;9.832;2023-06-14T08:34:34;4.90;;;3.15;;
38123;SDS011;23934;47.998;9.832;2023-06-14T08:37:00;7.20;;;3.42;;
38123;SDS011;23934;47.998;9.832;2023-06-14T08:39:26;6.63;;;3.88;;
38123;SDS011;23934;47.998;9.832;2023-06-14T08:41:52;7.00;;;3.20;;
38123;SDS011;23934;47.998;9.832;2023-06-14T08:44:18;4.45;;;2.97;;
38123;SDS011;23934;47.998;9.832;2023-06-14T08:46:45;10.80;;;2.90;;
38123;SDS011;23934;47.998;9.832;2023-06-14T08:49:11;6.90;;;2.90;;
38123;SDS011;23934;47.998;9.832;2023-06-14T08:51:37;5.20;;;2.92;;
38123;SDS011;23934;47.998;9.832;2023-06-14T08:54:05;4.90;;;2.97;;
38123;SDS011;23934;47.998;9.832;2023-06-14T08:56:31;4.93;;;2.67;;
38123;SDS011;23934;47.998;9.832;2023-06-14T08:58:59;9.25;;;2.65;;
38123;SDS011;23934;47.998;9.832;2023-06-14T09:01:34;4.97;;;2.88;;
38123;SDS011;23934;47.998;9.832;2023-06-14T09:04:00;4.93;;;2.83;;
38123;SDS011;23934;47.998;9.832;2023-06-14T09:06:27;7.85;;;3.25;;
38123;SDS011;23934;47.998;9.832;2023-06-14T09:08:54;6.28;;;3.10;;
38123;SDS011;23934;47.998;9.832;2023-06-14T09:11:23;6.05;;;2.38;;
38123;SDS011;23934;47.998;9.832;2023-06-14T09:13:51;7.22;;;2.90;;
38123;SDS011;23934;47.998;9.832;2023-06-14T09:16:16;4.53;;;2.67;;
38123;SDS011;23934;47.998;9.832;2023-06-14T09:18:45;6.57;;;2.40;;
38123;SDS011;23934;47.998;9.832;2023-06-14T09:21:15;7.47;;;2.90;;
38123;SDS011;23934;47.998;9.832;2023-06-14T09:23:42;3.72;;;2.38;;
38123;SDS011;23934;47.998;9.832;2023-06-14T09:26:09;6.78;;;2.65;;
38123;SDS011;23934;47.998;9.832;2023-06-14T09:28:36;9.18;;;3.60;;
38123;SDS011;23934;47.998;9.832;2023-06-14T09:31:02;4.32;;;3.10;;
38123;SDS011;23934;47.998;9.832;2023-06-14T09:33:28;4.25;;;2.58;;
38123;SDS011;23934;47.998;9.832;2023-06-14T09:35:54;4.82;;;2.80;;
38123;SDS011;23934;47.998;9.832;2023-06-14T09:38:20;3.35;;;2.55;;
38123;SDS011;23934;47.998;9.832;2023-06-14T09:40:46;6.20;;;3.22;;
38123;SDS011;23934;47.998;9.832;2023-06-14T09:43:12;5.25;;;3.05;;
38123;SDS011;23934;47.998;9.832;2023-06-14T09:45:38;6.22;;;2.88;;
38123;SDS011;23934;47.998;9.832;2023-06-14T09:48:05;5.82;;;2.90;;
38123;SDS011;23934;47.998;9.832;2023-06-14T09:50:32;6.32;;;3.28;;
38123;SDS011;23934;47.998;9.832;2023-06-14T09:53:05;6.75;;;3.08;;
38123;SDS011;23934;47.998;9.832;2023-06-14T09:55:31;5.15;;;2.85;;
38123;SDS011;23934;47.998;9.832;2023-06-14T09:58:00;6.05;;;3.05;;
38123;SDS011;23934;47.998;9.832;2023-06-14T10:00:28;7.10;;;3.42;;
38123;SDS011;23934;47.998;9.832;2023-06-14T10:02:58;6.55;;;3.05;;
38123;SDS011;23934;47.998;9.832;2023-06-14T10:05:26;4.18;;;2.78;;
38123;SDS011;23934;47.998;9.832;2023-06-14T10:07:56;7.63;;;3.20;;
38123;SDS011;23934;47.998;9.832;2023-06-14T10:12:51;8.93;;;3.50;;
38123;SDS011;23934;47.998;9.832;2023-06-14T10:15:23;5.13;;;2.92;;
38123;SDS011;23934;47.998;9.832;2023-06-14T10:18:31;7.05;;;3.03;;
38123;SDS011;23934;47.998;9.832;2023-06-14T10:23:40;7.38;;;3.17;;
38123;SDS011;23934;47.998;9.832;2023-06-14T10:26:07;8.13;;;2.83;;
38123;SDS011;23934;47.998;9.832;2023-06-14T10:28:33;6.70;;;3.25;;
38123;SDS011;23934;47.998;9.832;2023-06-14T10:33:32;8.68;;;3.63;;
38123;SDS011;23934;47.998;9.832;2023-06-14T10:38:34;6.85;;;3.70;;
38123;SDS011;23934;47.998;9.832;2023-06-14T10:41:02;6.80;;;3.10;;
38123;SDS011;23934;47.998;9.832;2023-06-14T10:43:28;8.55;;;2.90;;
38123;SDS011;23934;47.998;9.832;2023-06-14T10:48:43;8.35;;;3.63;;
38123;SDS011;23934;47.998;9.832;2023-06-14T10:51:16;9.13;;;2.92;;
38123;SDS011;23934;47.998;9.832;2023-06-14T10:53:45;6.72;;;3.20;;
38123;SDS011;23934;47.998;9.832;2023-06-14T10:56:26;4.07;;;2.75;;
38123;SDS011;23934;47.998;9.832;2023-06-14T10:58:53;6.75;;;3.28;;
38123;SDS011;23934;47.998;9.832;2023-06-14T11:01:23;9.55;;;3.92;;
38123;SDS011;23934;47.998;9.832;2023-06-14T11:03:54;6.60;;;3.03;;
38123;SDS011;23934;47.998;9.832;2023-06-14T11:06:22;4.88;;;3.05;;
38123;SDS011;23934;47.998;9.832;2023-06-14T11:11:33;6.60;;;3.28;;
38123;SDS011;23934;47.998;9.832;2023-06-14T11:13:59;12.02;;;3.25;;
38123;SDS011;23934;47.998;9.832;2023-06-14T11:16:26;4.38;;;2.95;;
38123;SDS011;23934;47.998;9.832;2023-06-14T11:18:53;4.75;;;3.38;;
38123;SDS011;23934;47.998;9.832;2023-06-14T11:21:19;8.88;;;3.80;;
38123;SDS011;23934;47.998;9.832;2023-06-14T11:23:53;6.03;;;3.35;;
38123;SDS011;23934;47.998;9.832;2023-06-14T11:26:29;6.20;;;3.25;;
38123;SDS011;23934;47.998;9.832;2023-06-14T11:28:56;5.47;;;3.10;;
38123;SDS011;23934;47.998;9.832;2023-06-14T11:31:23;6.55;;;3.65;;
38123;SDS011;23934;47.998;9.832;2023-06-14T11:33:50;4.57;;;3.05;;
38123;SDS011;23934;47.998;9.832;2023-06-14T11:36:16;4.72;;;3.33;;
38123;SDS011;23934;47.998;9.832;2023-06-14T11:38:42;5.00;;;3.08;;
38123;SDS011;23934;47.998;9.832;2023-06-14T11:41:08;7.45;;;4.15;;
38123;SDS011;23934;47.998;9.832;2023-06-14T11:43:34;7.90;;;3.92;;
38123;SDS011;23934;47.998;9.832;2023-06-14T11:46:01;5.65;;;3.35;;
38123;SDS011;23934;47.998;9.832;2023-06-14T11:48:37;4.85;;;3.20;;
38123;SDS011;23934;47.998;9.832;2023-06-14T11:51:03;6.30;;;3.10;;
38123;SDS011;23934;47.998;9.832;2023-06-14T11:53:28;6.57;;;3.58;;
38123;SDS011;23934;47.998;9.832;2023-06-14T11:55:55;6.22;;;3.47;;
38123;SDS011;23934;47.998;9.832;2023-06-14T11:58:21;8.77;;;3.20;;
38123;SDS011;23934;47.998;9.832;2023-06-14T12:00:51;6.65;;;3.35;;
38123;SDS011;23934;47.998;9.832;2023-06-14T12:03:17;11.40;;;2.95;;
38123;SDS011;23934;47.998;9.832;2023-06-14T12:05:48;7.63;;;3.47;;
38123;SDS011;23934;47.998;9.832;2023-06-14T12:08:14;9.85;;;3.42;;
38123;SDS011;23934;47.998;9.832;2023-06-14T12:10:42;7.85;;;3.00;;
38123;SDS011;23934;47.998;9.832;2023-06-14T12:13:08;9.93;;;3.33;;
38123;SDS011;23934;47.998;9.832;2023-06-14T12:15:35;14.23;;;3.13;;
38123;SDS011;23934;47.998;9.832;2023-06-14T12:18:04;8.18;;;3.58;;
38123;SDS011;23934;47.998;9.832;2023-06-14T12:20:31;4.68;;;3.22;;
38123;SDS011;23934;47.998;9.832;2023-06-14T12:23:02;11.90;;;2.97;;
38123;SDS011;23934;47.998;9.832;2023-06-14T12:25:29;4.25;;;2.83;;
38123;SDS011;23934;47.998;9.832;2023-06-14T12:27:56;7.30;;;2.95;;
38123;SDS011;23934;47.998;9.832;2023-06-14T12:30:22;7.47;;;3.38;;
38123;SDS011;23934;47.998;9.832;2023-06-14T12:32:48;4.60;;;3.17;;
38123;SDS011;23934;47.998;9.832;2023-06-14T12:35:16;11.43;;;3.00;;
38123;SDS011;23934;47.998;9.832;2023-06-14T12:37:43;6.55;;;3.63;;
38123;SDS011;23934;47.998;9.832;2023-06-14T12:40:09;7.25;;;3.63;;
38123;SDS011;23934;47.998;9.832;2023-06-14T12:42:36;5.05;;;3.30;;
38123;SDS011;23934;47.998;9.832;2023-06-14T12:45:02;5.43;;;3.13;;
38123;SDS011;23934;47.998;9.832;2023-06-14T12:47:28;6.70;;;3.42;;
38123;SDS011;23934;47.998;9.832;2023-06-14T12:49:54;11.68;;;3.22;;
38123;SDS011;23934;47.998;9.832;2023-06-14T12:52:20;6.00;;;3.05;;
38123;SDS011;23934;47.998;9.832;2023-06-14T12:54:46;5.80;;;3.05;;
38123;SDS011;23934;47.998;9.832;2023-06-14T12:57:12;9.52;;;3.40;;
38123;SDS011;23934;47.998;9.832;2023-06-14T12:59:38;7.68;;;3.30;;
38123;SDS011;23934;47.998;9.832;2023-06-14T13:02:14;9.07;;;3.30;;
38123;SDS011;23934;47.998;9.832;2023-06-14T13:04:40;7.03;;;3.22;;
38123;SDS011;23934;47.998;9.832;2023-06-14T13:07:06;7.82;;;3.53;;
38123;SDS011;23934;47.998;9.832;2023-06-14T13:09:32;5.38;;;2.90;;
38123;SDS011;23934;47.998;9.832;2023-06-14T13:11:58;6.20;;;3.40;;
38123;SDS011;23934;47.998;9.832;2023-06-14T13:14:24;5.55;;;3.28;;
38123;SDS011;23934;47.998;9.832;2023-06-14T13:16:51;5.75;;;3.38;;
38123;SDS011;23934;47.998;9.832;2023-06-14T13:19:17;5.43;;;3.15;;
38123;SDS011;23934;47.998;9.832;2023-06-14T13:21:43;6.15;;;3.53;;
38123;SDS011;23934;47.998;9.832;2023-06-14T13:24:08;5.30;;;3.28;;
38123;SDS011;23934;47.998;9.832;2023-06-14T13:26:34;8.82;;;3.78;;
38123;SDS011;23934;47.998;9.832;2023-06-14T13:29:00;5.38;;;3.33;;
38123;SDS011;23934;47.998;9.832;2023-06-14T13:31:26;7.68;;;3.63;;
38123;SDS011;23934;47.998;9.832;2023-06-14T13:33:52;4.47;;;3.25;;
38123;SDS011;23934;47.998;9.832;2023-06-14T13:36:18;7.00;;;3.47;;
38123;SDS011;23934;47.998;9.832;2023-06-14T13:38:44;8.20;;;3.35;;
38123;SDS011;23934;47.998;9.832;2023-06-14T13:41:10;7.70;;;3.33;;
38123;SDS011;23934;47.998;9.832;2023-06-14T13:43:36;4.55;;;3.28;;
38123;SDS011;23934;47.998;9.832;2023-06-14T13:46:02;8.07;;;3.60;;
38123;SDS011;23934;47.998;9.832;2023-06-14T13:48:28;5.53;;;3.60;;
38123;SDS011;23934;47.998;9.832;2023-06-14T13:50:54;5.40;;;3.38;;
38123;SDS011;23934;47.998;9.832;2023-06-14T13:53:20;6.28;;;3.55;;
38123;SDS011;23934;47.998;9.832;2023-06-14T13:55:46;6.53;;;3.47;;
38123;SDS011;23934;47.998;9.832;2023-06-14T13:58:12;8.68;;;3.47;;
38123;SDS011;23934;47.998;9.832;2023-06-14T14:00:40;5.72;;;3.40;;
38123;SDS011;23934;47.998;9.832;2023-06-14T14:03:06;5.82;;;3.55;;
38123;SDS011;23934;47.998;9.832;2023-06-14T14:05:33;4.22;;;2.90;;
38123;SDS011;23934;47.998;9.832;2023-06-14T14:07:59;6.45;;;3.45;;
38123;SDS011;23934;47.998;9.832;2023-06-14T14:10:26;6.32;;;3.47;;
38123;SDS011;23934;47.998;9.832;2023-06-14T14:12:52;5.93;;;3.38;;
38123;SDS011;23934;47.998;9.832;2023-06-14T14:15:19;5.60;;;3.38;;
38123;SDS011;23934;47.998;9.832;2023-06-14T14:17:45;6.95;;;3.03;;
38123;SDS011;23934;47.998;9.832;2023-06-14T14:20:12;8.15;;;3.55;;
38123;SDS011;23934;47.998;9.832;2023-06-14T14:22:40;5.65;;;3.25;;
38123;SDS011;23934;47.998;9.832;2023-06-14T14:25:07;11.45;;;3.90;;
38123;SDS011;23934;47.998;9.832;2023-06-14T14:27:33;4.88;;;3.20;;
38123;SDS011;23934;47.998;9.832;2023-06-14T14:29:58;5.95;;;3.67;;
38123;SDS011;23934;47.998;9.832;2023-06-14T14:32:24;5.45;;;3.60;;
38123;SDS011;23934;47.998;9.832;2023-06-14T14:34:50;5.15;;;3.20;;
38123;SDS011;23934;47.998;9.832;2023-06-14T14:37:16;5.53;;;3.60;;
38123;SDS011;23934;47.998;9.832;2023-06-14T14:39:44;12.00;;;3.88;;
38123;SDS011;23934;47.998;9.832;2023-06-14T14:42:10;6.80;;;3.67;;
38123;SDS011;23934;47.998;9.832;2023-06-14T14:44:37;5.13;;;3.63;;
38123;SDS011;23934;47.998;9.832;2023-06-14T14:47:03;9.38;;;3.80;;
38123;SDS011;23934;47.998;9.832;2023-06-14T14:49:30;9.20;;;3.42;;
38123;SDS011;23934;47.998;9.832;2023-06-14T14:51:56;7.05;;;3.08;;
38123;SDS011;23934;47.998;9.832;2023-06-14T14:54:22;6.93;;;3.58;;
38123;SDS011;23934;47.998;9.832;2023-06-14T14:56:49;5.18;;;3.28;;
38123;SDS011;23934;47.998;9.832;2023-06-14T14:59:15;6.28;;;3.70;;
38123;SDS011;23934;47.998;9.832;2023-06-14T15:01:42;4.90;;;3.00;;
38123;SDS011;23934;47.998;9.832;2023-06-14T15:04:08;11.32;;;3.55;;